sensor_id;sensor_type;location;lat;lon;timestamp;P1;durP1;ratioP1;P2;durP2;ratioP2
32812;SDS011;19162;48.254;11.454;2023-02-28T00:01:53;3.38;;;3.08;;
32812;SDS011;19162;48.254;11.454;2023-02-28T00:04:54;3.42;;;3.13;;
32812;SDS011;19162;48.254;11.454;2023-02-28T00:08:00;3.13;;;2.92;;
32812;SDS011;19162;48.254;11.454;2023-02-28T00:11:02;3.60;;;3.30;;
32812;SDS011;19162;48.254;11.454;2023-02-28T00:14:02;2.97;;;2.78;;
32812;SDS011;19162;48.254;11.454;2023-02-28T00:17:03;3.53;;;3.23;;
32812;SDS011;19162;48.254;11.454;2023-02-28T00:20:03;4.10;;;3.50;;
32812;SDS011;19162;48.254;11.454;2023-02-28T00:23:08;3.40;;;3.10;;
32812;SDS011;19162;48.254;11.454;2023-02-28T00:26:08;7.50;;;5.88;;
32812;SDS011;19162;48.254;11.454;2023-02-28T00:29:08;5.63;;;3.42;;
32812;SDS011;19162;48.254;11.454;2023-02-28T00:32:09;3.88;;;3.58;;
32812;SDS011;19162;48.254;11.454;2023-02-28T00:35:09;4.13;;;2.87;;
32812;SDS011;19162;48.254;11.454;2023-02-28T00:38:10;3.63;;;3.03;;
32812;SDS011;19162;48.254;11.454;2023-02-28T00:41:10;3.55;;;3.25;;
32812;SDS011;19162;48.254;11.454;2023-02-28T00:44:10;4.30;;;3.37;;
32812;SDS011;19162;48.254;11.454;2023-02-28T00:47:10;4.03;;;2.97;;
32812;SDS011;19162;48.254;11.454;2023-02-28T00:50:11;3.78;;;3.33;;
32812;SDS011;19162;48.254;11.454;2023-02-28T00:53:11;3.38;;;2.78;;
32812;SDS011;19162;48.254;11.454;2023-02-28T00:56:11;2.85;;;2.65;;
32812;SDS011;19162;48.254;11.454;2023-02-28T00:59:12;4.45;;;4.03;;
32812;SDS011;19162;48.254;11.454;2023-02-28T01:02:12;4.78;;;3.80;;
32812;SDS011;19162;48.254;11.454;2023-02-28T01:05:12;3.87;;;3.50;;
32812;SDS011;19162;48.254;11.454;2023-02-28T01:08:13;3.33;;;3.03;;
32812;SDS011;19162;48.254;11.454;2023-02-28T01:11:15;3.72;;;3.42;;
32812;SDS011;19162;48.254;11.454;2023-02-28T01:14:16;3.72;;;3.35;;
32812;SDS011;19162;48.254;11.454;2023-02-28T01:17:17;3.97;;;3.53;;
32812;SDS011;19162;48.254;11.454;2023-02-28T01:20:17;3.90;;;3.50;;
32812;SDS011;19162;48.254;11.454;2023-02-28T01:23:18;3.90;;;3.50;;
32812;SDS011;19162;48.254;11.454;2023-02-28T01:26:19;3.92;;;3.58;;
32812;SDS011;19162;48.254;11.454;2023-02-28T01:29:20;3.53;;;3.22;;
32812;SDS011;19162;48.254;11.454;2023-02-28T01:32:20;3.78;;;3.40;;
32812;SDS011;19162;48.254;11.454;2023-02-28T01:35:20;3.83;;;3.42;;
32812;SDS011;19162;48.254;11.454;2023-02-28T01:38:20;3.80;;;3.17;;
32812;SDS011;19162;48.254;11.454;2023-02-28T01:41:22;4.18;;;3.67;;
32812;SDS011;19162;48.254;11.454;2023-02-28T01:47:41;5.55;;;3.90;;
32812;SDS011;19162;48.254;11.454;2023-02-28T01:50:43;5.43;;;3.30;;
32812;SDS011;19162;48.254;11.454;2023-02-28T01:53:45;3.20;;;3.00;;
32812;SDS011;19162;48.254;11.454;2023-02-28T01:56:52;3.95;;;3.08;;
32812;SDS011;19162;48.254;11.454;2023-02-28T02:02:55;4.05;;;3.65;;
32812;SDS011;19162;48.254;11.454;2023-02-28T02:05:56;3.28;;;2.97;;
32812;SDS011;19162;48.254;11.454;2023-02-28T02:08:56;4.27;;;3.83;;
32812;SDS011;19162;48.254;11.454;2023-02-28T02:11:57;3.70;;;3.30;;
32812;SDS011;19162;48.254;11.454;2023-02-28T02:15:03;3.53;;;3.22;;
32812;SDS011;19162;48.254;11.454;2023-02-28T02:18:50;4.32;;;3.92;;
32812;SDS011;19162;48.254;11.454;2023-02-28T02:21:37;3.72;;;3.42;;
32812;SDS011;19162;48.254;11.454;2023-02-28T02:27:52;4.25;;;3.85;;
32812;SDS011;19162;48.254;11.454;2023-02-28T02:30:59;4.43;;;3.60;;
32812;SDS011;19162;48.254;11.454;2023-02-28T02:34:50;5.47;;;3.88;;
32812;SDS011;19162;48.254;11.454;2023-02-28T02:37:39;4.38;;;3.58;;
32812;SDS011;19162;48.254;11.454;2023-02-28T02:40:43;4.35;;;3.95;;
32812;SDS011;19162;48.254;11.454;2023-02-28T02:43:50;4.32;;;3.92;;
32812;SDS011;19162;48.254;11.454;2023-02-28T02:46:51;4.30;;;3.92;;
32812;SDS011;19162;48.254;11.454;2023-02-28T02:49:54;6.05;;;4.05;;
32812;SDS011;19162;48.254;11.454;2023-02-28T02:52:56;4.05;;;3.75;;
32812;SDS011;19162;48.254;11.454;2023-02-28T02:55:57;7.22;;;6.53;;
32812;SDS011;19162;48.254;11.454;2023-02-28T02:59:00;5.75;;;5.20;;
32812;SDS011;19162;48.254;11.454;2023-02-28T03:02:02;4.43;;;4.00;;
32812;SDS011;19162;48.254;11.454;2023-02-28T03:05:46;5.20;;;4.60;;
32812;SDS011;19162;48.254;11.454;2023-02-28T03:08:28;4.80;;;4.38;;
32812;SDS011;19162;48.254;11.454;2023-02-28T03:11:29;5.23;;;4.73;;
32812;SDS011;19162;48.254;11.454;2023-02-28T03:20:38;4.60;;;4.20;;
32812;SDS011;19162;48.254;11.454;2023-02-28T03:23:42;4.72;;;4.32;;
32812;SDS011;19162;48.254;11.454;2023-02-28T03:26:45;5.25;;;4.78;;
32812;SDS011;19162;48.254;11.454;2023-02-28T03:29:48;5.13;;;4.68;;
32812;SDS011;19162;48.254;11.454;2023-02-28T03:36:13;5.57;;;5.07;;
32812;SDS011;19162;48.254;11.454;2023-02-28T03:39:23;4.80;;;4.35;;
32812;SDS011;19162;48.254;11.454;2023-02-28T03:42:24;5.30;;;4.80;;
32812;SDS011;19162;48.254;11.454;2023-02-28T03:45:26;5.45;;;4.95;;
32812;SDS011;19162;48.254;11.454;2023-02-28T03:48:41;6.45;;;5.47;;
32812;SDS011;19162;48.254;11.454;2023-02-28T03:51:42;5.80;;;5.30;;
32812;SDS011;19162;48.254;11.454;2023-02-28T03:54:45;6.22;;;5.20;;
32812;SDS011;19162;48.254;11.454;2023-02-28T04:00:49;5.82;;;5.22;;
32812;SDS011;19162;48.254;11.454;2023-02-28T04:03:51;5.93;;;5.53;;
32812;SDS011;19162;48.254;11.454;2023-02-28T04:06:52;6.30;;;5.70;;
32812;SDS011;19162;48.254;11.454;2023-02-28T04:09:52;6.18;;;5.60;;
32812;SDS011;19162;48.254;11.454;2023-02-28T04:12:52;6.35;;;5.85;;
32812;SDS011;19162;48.254;11.454;2023-02-28T04:15:52;6.13;;;5.57;;
32812;SDS011;19162;48.254;11.454;2023-02-28T04:18:53;6.40;;;5.67;;
32812;SDS011;19162;48.254;11.454;2023-02-28T04:21:53;5.47;;;4.97;;
32812;SDS011;19162;48.254;11.454;2023-02-28T04:24:53;6.65;;;6.15;;
32812;SDS011;19162;48.254;11.454;2023-02-28T04:27:54;6.57;;;5.97;;
32812;SDS011;19162;48.254;11.454;2023-02-28T04:30:58;6.72;;;6.22;;
32812;SDS011;19162;48.254;11.454;2023-02-28T04:33:58;6.75;;;6.13;;
32812;SDS011;19162;48.254;11.454;2023-02-28T04:36:58;6.72;;;6.13;;
32812;SDS011;19162;48.254;11.454;2023-02-28T04:40:00;7.15;;;6.47;;
32812;SDS011;19162;48.254;11.454;2023-02-28T04:43:01;6.82;;;6.13;;
32812;SDS011;19162;48.254;11.454;2023-02-28T04:46:02;7.38;;;6.30;;
32812;SDS011;19162;48.254;11.454;2023-02-28T04:49:02;6.53;;;5.93;;
32812;SDS011;19162;48.254;11.454;2023-02-28T04:52:03;6.80;;;6.05;;
32812;SDS011;19162;48.254;11.454;2023-02-28T04:55:03;6.85;;;6.15;;
32812;SDS011;19162;48.254;11.454;2023-02-28T04:58:03;7.40;;;6.78;;
32812;SDS011;19162;48.254;11.454;2023-02-28T05:01:04;6.85;;;6.32;;
32812;SDS011;19162;48.254;11.454;2023-02-28T05:04:12;6.93;;;6.35;;
32812;SDS011;19162;48.254;11.454;2023-02-28T05:07:12;7.18;;;6.68;;
32812;SDS011;19162;48.254;11.454;2023-02-28T05:10:12;8.45;;;7.63;;
32812;SDS011;19162;48.254;11.454;2023-02-28T05:13:12;7.53;;;7.03;;
32812;SDS011;19162;48.254;11.454;2023-02-28T05:16:13;7.70;;;7.03;;
32812;SDS011;19162;48.254;11.454;2023-02-28T05:19:13;8.38;;;7.68;;
32812;SDS011;19162;48.254;11.454;2023-02-28T05:22:14;7.20;;;6.18;;
32812;SDS011;19162;48.254;11.454;2023-02-28T05:25:17;7.05;;;6.35;;
32812;SDS011;19162;48.254;11.454;2023-02-28T05:28:20;7.80;;;7.05;;
32812;SDS011;19162;48.254;11.454;2023-02-28T05:31:21;7.65;;;6.95;;
32812;SDS011;19162;48.254;11.454;2023-02-28T05:34:21;8.38;;;7.57;;
32812;SDS011;19162;48.254;11.454;2023-02-28T05:37:21;8.15;;;7.45;;
32812;SDS011;19162;48.254;11.454;2023-02-28T05:40:22;8.20;;;7.50;;
32812;SDS011;19162;48.254;11.454;2023-02-28T05:43:22;8.30;;;7.60;;
32812;SDS011;19162;48.254;11.454;2023-02-28T05:46:22;8.50;;;7.70;;
32812;SDS011;19162;48.254;11.454;2023-02-28T05:49:23;9.30;;;8.38;;
32812;SDS011;19162;48.254;11.454;2023-02-28T05:52:23;8.77;;;8.07;;
32812;SDS011;19162;48.254;11.454;2023-02-28T05:55:23;8.60;;;7.90;;
32812;SDS011;19162;48.254;11.454;2023-02-28T05:58:23;8.87;;;8.10;;
32812;SDS011;19162;48.254;11.454;2023-02-28T06:01:38;9.10;;;8.15;;
32812;SDS011;19162;48.254;11.454;2023-02-28T06:04:39;8.35;;;7.63;;
32812;SDS011;19162;48.254;11.454;2023-02-28T06:07:40;8.98;;;8.18;;
32812;SDS011;19162;48.254;11.454;2023-02-28T06:10:41;8.43;;;7.68;;
32812;SDS011;19162;48.254;11.454;2023-02-28T06:13:41;8.80;;;8.20;;
32812;SDS011;19162;48.254;11.454;2023-02-28T06:16:41;9.30;;;8.50;;
32812;SDS011;19162;48.254;11.454;2023-02-28T06:19:41;9.47;;;8.53;;
32812;SDS011;19162;48.254;11.454;2023-02-28T06:22:41;9.35;;;8.55;;
32812;SDS011;19162;48.254;11.454;2023-02-28T06:25:44;9.18;;;8.27;;
32812;SDS011;19162;48.254;11.454;2023-02-28T06:28:44;9.32;;;7.20;;
32812;SDS011;19162;48.254;11.454;2023-02-28T06:31:45;9.13;;;8.32;;
32812;SDS011;19162;48.254;11.454;2023-02-28T06:34:45;9.18;;;8.48;;
32812;SDS011;19162;48.254;11.454;2023-02-28T06:37:46;9.37;;;8.47;;
32812;SDS011;19162;48.254;11.454;2023-02-28T06:40:52;9.40;;;8.60;;
32812;SDS011;19162;48.254;11.454;2023-02-28T06:43:53;10.43;;;9.52;;
32812;SDS011;19162;48.254;11.454;2023-02-28T06:46:53;9.67;;;8.77;;
32812;SDS011;19162;48.254;11.454;2023-02-28T06:49:53;9.57;;;8.77;;
32812;SDS011;19162;48.254;11.454;2023-02-28T06:52:53;10.57;;;9.70;;
32812;SDS011;19162;48.254;11.454;2023-02-28T06:55:55;9.38;;;8.57;;
32812;SDS011;19162;48.254;11.454;2023-02-28T06:58:55;10.07;;;9.13;;
32812;SDS011;19162;48.254;11.454;2023-02-28T07:01:56;10.25;;;9.40;;
32812;SDS011;19162;48.254;11.454;2023-02-28T07:04:56;10.23;;;9.43;;
32812;SDS011;19162;48.254;11.454;2023-02-28T07:07:56;9.82;;;9.02;;
32812;SDS011;19162;48.254;11.454;2023-02-28T07:11:07;11.20;;;9.63;;
32812;SDS011;19162;48.254;11.454;2023-02-28T07:15:09;10.23;;;9.27;;
32812;SDS011;19162;48.254;11.454;2023-02-28T07:17:59;10.45;;;9.43;;
32812;SDS011;19162;48.254;11.454;2023-02-28T07:21:09;10.07;;;9.07;;
32812;SDS011;19162;48.254;11.454;2023-02-28T07:31:50;9.95;;;9.00;;
32812;SDS011;19162;48.254;11.454;2023-02-28T07:38:47;10.88;;;9.88;;
32812;SDS011;19162;48.254;11.454;2023-02-28T07:45:42;9.85;;;8.98;;
32812;SDS011;19162;48.254;11.454;2023-02-28T07:48:43;11.37;;;10.27;;
32812;SDS011;19162;48.254;11.454;2023-02-28T07:52:12;11.13;;;10.13;;
32812;SDS011;19162;48.254;11.454;2023-02-28T07:59:28;11.85;;;10.85;;
32812;SDS011;19162;48.254;11.454;2023-02-28T08:02:30;11.40;;;10.33;;
32812;SDS011;19162;48.254;11.454;2023-02-28T08:05:43;11.82;;;10.82;;
32812;SDS011;19162;48.254;11.454;2023-02-28T08:08:49;12.43;;;11.30;;
32812;SDS011;19162;48.254;11.454;2023-02-28T08:11:56;12.55;;;11.38;;
32812;SDS011;19162;48.254;11.454;2023-02-28T08:14:56;11.93;;;10.93;;
32812;SDS011;19162;48.254;11.454;2023-02-28T08:17:57;12.67;;;11.37;;
32812;SDS011;19162;48.254;11.454;2023-02-28T08:20:57;12.40;;;11.20;;
32812;SDS011;19162;48.254;11.454;2023-02-28T08:24:00;12.70;;;11.70;;
32812;SDS011;19162;48.254;11.454;2023-02-28T08:27:18;12.00;;;10.83;;
32812;SDS011;19162;48.254;11.454;2023-02-28T08:30:18;12.73;;;11.40;;
32812;SDS011;19162;48.254;11.454;2023-02-28T08:33:21;12.82;;;11.63;;
32812;SDS011;19162;48.254;11.454;2023-02-28T08:36:25;10.93;;;10.02;;
32812;SDS011;19162;48.254;11.454;2023-02-28T08:39:28;11.82;;;10.85;;
32812;SDS011;19162;48.254;11.454;2023-02-28T08:42:37;12.77;;;11.57;;
32812;SDS011;19162;48.254;11.454;2023-02-28T08:49:05;13.63;;;12.23;;
32812;SDS011;19162;48.254;11.454;2023-02-28T08:52:20;12.38;;;11.45;;
32812;SDS011;19162;48.254;11.454;2023-02-28T08:59:41;11.73;;;10.68;;
32812;SDS011;19162;48.254;11.454;2023-02-28T09:02:44;12.70;;;11.60;;
32812;SDS011;19162;48.254;11.454;2023-02-28T09:13:17;12.80;;;11.73;;
32812;SDS011;19162;48.254;11.454;2023-02-28T09:16:17;11.93;;;10.90;;
32812;SDS011;19162;48.254;11.454;2023-02-28T09:19:17;11.95;;;10.95;;
32812;SDS011;19162;48.254;11.454;2023-02-28T09:22:18;10.47;;;9.57;;
32812;SDS011;19162;48.254;11.454;2023-02-28T09:25:18;12.13;;;10.93;;
32812;SDS011;19162;48.254;11.454;2023-02-28T09:28:18;11.83;;;10.83;;
32812;SDS011;19162;48.254;11.454;2023-02-28T09:31:23;11.88;;;10.85;;
32812;SDS011;19162;48.254;11.454;2023-02-28T09:34:27;12.48;;;11.27;;
32812;SDS011;19162;48.254;11.454;2023-02-28T09:37:28;12.68;;;11.48;;
32812;SDS011;19162;48.254;11.454;2023-02-28T09:40:29;13.30;;;12.13;;
32812;SDS011;19162;48.254;11.454;2023-02-28T09:43:33;13.32;;;12.23;;
32812;SDS011;19162;48.254;11.454;2023-02-28T09:46:36;12.45;;;11.35;;
32812;SDS011;19162;48.254;11.454;2023-02-28T09:52:37;13.57;;;12.27;;
32812;SDS011;19162;48.254;11.454;2023-02-28T09:55:55;13.15;;;12.13;;
32812;SDS011;19162;48.254;11.454;2023-02-28T09:59:00;12.75;;;11.65;;
32812;SDS011;19162;48.254;11.454;2023-02-28T10:02:47;13.43;;;12.30;;
32812;SDS011;19162;48.254;11.454;2023-02-28T10:05:26;13.38;;;12.18;;
32812;SDS011;19162;48.254;11.454;2023-02-28T10:08:28;12.63;;;11.57;;
32812;SDS011;19162;48.254;11.454;2023-02-28T10:11:30;12.20;;;11.10;;
32812;SDS011;19162;48.254;11.454;2023-02-28T10:14:33;11.73;;;10.77;;
32812;SDS011;19162;48.254;11.454;2023-02-28T10:17:37;11.95;;;10.95;;
32812;SDS011;19162;48.254;11.454;2023-02-28T10:20:43;14.18;;;12.80;;
32812;SDS011;19162;48.254;11.454;2023-02-28T10:23:44;11.82;;;10.80;;
32812;SDS011;19162;48.254;11.454;2023-02-28T10:26:47;12.20;;;11.20;;
32812;SDS011;19162;48.254;11.454;2023-02-28T10:29:53;12.32;;;11.23;;
32812;SDS011;19162;48.254;11.454;2023-02-28T10:32:53;11.98;;;11.00;;
32812;SDS011;19162;48.254;11.454;2023-02-28T10:35:54;12.63;;;11.43;;
32812;SDS011;19162;48.254;11.454;2023-02-28T10:38:55;11.95;;;10.82;;
32812;SDS011;19162;48.254;11.454;2023-02-28T10:41:55;11.90;;;10.98;;
32812;SDS011;19162;48.254;11.454;2023-02-28T10:51:16;13.98;;;12.60;;
32812;SDS011;19162;48.254;11.454;2023-02-28T10:54:22;13.52;;;12.43;;
32812;SDS011;19162;48.254;11.454;2023-02-28T10:57:23;12.23;;;11.07;;
32812;SDS011;19162;48.254;11.454;2023-02-28T11:00:32;12.52;;;11.43;;
32812;SDS011;19162;48.254;11.454;2023-02-28T11:03:34;11.75;;;10.68;;
32812;SDS011;19162;48.254;11.454;2023-02-28T11:06:34;13.18;;;11.88;;
32812;SDS011;19162;48.254;11.454;2023-02-28T11:09:38;12.07;;;11.07;;
32812;SDS011;19162;48.254;11.454;2023-02-28T11:12:39;12.38;;;11.18;;
32812;SDS011;19162;48.254;11.454;2023-02-28T11:15:42;10.93;;;9.93;;
32812;SDS011;19162;48.254;11.454;2023-02-28T11:18:52;11.60;;;10.68;;
32812;SDS011;19162;48.254;11.454;2023-02-28T11:22:00;11.75;;;10.80;;
32812;SDS011;19162;48.254;11.454;2023-02-28T11:25:03;12.00;;;10.82;;
32812;SDS011;19162;48.254;11.454;2023-02-28T11:28:23;12.10;;;11.07;;
32812;SDS011;19162;48.254;11.454;2023-02-28T11:31:23;11.07;;;10.07;;
32812;SDS011;19162;48.254;11.454;2023-02-28T11:34:24;11.17;;;10.07;;
32812;SDS011;19162;48.254;11.454;2023-02-28T11:37:25;10.95;;;10.10;;
32812;SDS011;19162;48.254;11.454;2023-02-28T11:40:31;11.30;;;10.35;;
32812;SDS011;19162;48.254;11.454;2023-02-28T11:59:19;9.07;;;8.23;;
32812;SDS011;19162;48.254;11.454;2023-02-28T12:02:48;10.18;;;9.38;;
32812;SDS011;19162;48.254;11.454;2023-02-28T12:06:02;11.82;;;10.93;;
32812;SDS011;19162;48.254;11.454;2023-02-28T12:12:32;10.13;;;9.32;;
32812;SDS011;19162;48.254;11.454;2023-02-28T12:19:00;9.90;;;9.10;;
32812;SDS011;19162;48.254;11.454;2023-02-28T12:25:13;10.63;;;9.60;;
32812;SDS011;19162;48.254;11.454;2023-02-28T12:28:25;11.75;;;10.70;;
32812;SDS011;19162;48.254;11.454;2023-02-28T12:31:28;11.23;;;10.32;;
32812;SDS011;19162;48.254;11.454;2023-02-28T12:37:31;11.27;;;10.30;;
32812;SDS011;19162;48.254;11.454;2023-02-28T12:40:56;11.18;;;10.27;;
32812;SDS011;19162;48.254;11.454;2023-02-28T12:43:59;11.32;;;10.40;;
32812;SDS011;19162;48.254;11.454;2023-02-28T12:47:02;11.25;;;10.35;;
32812;SDS011;19162;48.254;11.454;2023-02-28T12:50:07;10.88;;;9.98;;
32812;SDS011;19162;48.254;11.454;2023-02-28T12:53:28;10.90;;;10.00;;
32812;SDS011;19162;48.254;11.454;2023-02-28T12:59:52;12.13;;;11.10;;
32812;SDS011;19162;48.254;11.454;2023-02-28T13:03:13;11.43;;;10.52;;
32812;SDS011;19162;48.254;11.454;2023-02-28T13:09:35;11.13;;;10.23;;
32812;SDS011;19162;48.254;11.454;2023-02-28T13:12:37;11.95;;;10.85;;
32812;SDS011;19162;48.254;11.454;2023-02-28T13:19:09;11.02;;;9.90;;
32812;SDS011;19162;48.254;11.454;2023-02-28T13:38:12;10.57;;;9.77;;
32812;SDS011;19162;48.254;11.454;2023-02-28T13:45:19;9.98;;;9.13;;
32812;SDS011;19162;48.254;11.454;2023-02-28T13:48:02;12.48;;;11.27;;
32812;SDS011;19162;48.254;11.454;2023-02-28T13:51:25;10.32;;;9.43;;
32812;SDS011;19162;48.254;11.454;2023-02-28T13:57:45;11.23;;;10.23;;
32812;SDS011;19162;48.254;11.454;2023-02-28T14:07:25;10.82;;;9.93;;
32812;SDS011;19162;48.254;11.454;2023-02-28T14:11:27;10.27;;;9.48;;
32812;SDS011;19162;48.254;11.454;2023-02-28T14:13:55;10.73;;;9.82;;
32812;SDS011;19162;48.254;11.454;2023-02-28T14:16:56;10.40;;;9.50;;
32812;SDS011;19162;48.254;11.454;2023-02-28T14:19:57;11.50;;;10.48;;
32812;SDS011;19162;48.254;11.454;2023-02-28T14:23:02;10.77;;;9.35;;
32812;SDS011;19162;48.254;11.454;2023-02-28T14:26:28;10.77;;;9.68;;
32812;SDS011;19162;48.254;11.454;2023-02-28T14:38:47;10.55;;;9.65;;
32812;SDS011;19162;48.254;11.454;2023-02-28T14:41:49;11.25;;;10.35;;
32812;SDS011;19162;48.254;11.454;2023-02-28T14:44:53;10.73;;;9.83;;
32812;SDS011;19162;48.254;11.454;2023-02-28T14:47:55;11.63;;;10.68;;
32812;SDS011;19162;48.254;11.454;2023-02-28T14:50:59;10.98;;;10.07;;
32812;SDS011;19162;48.254;11.454;2023-02-28T14:54:01;10.50;;;9.65;;
32812;SDS011;19162;48.254;11.454;2023-02-28T14:57:02;10.80;;;9.90;;
32812;SDS011;19162;48.254;11.454;2023-02-28T15:00:13;11.45;;;10.45;;
32812;SDS011;19162;48.254;11.454;2023-02-28T15:03:18;10.57;;;9.60;;
32812;SDS011;19162;48.254;11.454;2023-02-28T15:06:19;10.68;;;9.77;;
32812;SDS011;19162;48.254;11.454;2023-02-28T15:09:20;11.20;;;10.30;;
32812;SDS011;19162;48.254;11.454;2023-02-28T15:12:21;11.93;;;10.93;;
32812;SDS011;19162;48.254;11.454;2023-02-28T15:15:21;10.90;;;9.87;;
32812;SDS011;19162;48.254;11.454;2023-02-28T15:21:31;11.27;;;10.38;;
32812;SDS011;19162;48.254;11.454;2023-02-28T15:24:37;10.93;;;10.00;;
32812;SDS011;19162;48.254;11.454;2023-02-28T15:27:39;11.70;;;10.70;;
32812;SDS011;19162;48.254;11.454;2023-02-28T15:30:49;12.18;;;11.18;;
32812;SDS011;19162;48.254;11.454;2023-02-28T15:33:57;11.90;;;10.75;;
32812;SDS011;19162;48.254;11.454;2023-02-28T15:36:57;11.80;;;10.68;;
32812;SDS011;19162;48.254;11.454;2023-02-28T15:40:04;11.00;;;10.10;;
32812;SDS011;19162;48.254;11.454;2023-02-28T15:43:07;11.27;;;10.20;;
32812;SDS011;19162;48.254;11.454;2023-02-28T15:46:13;10.02;;;9.05;;
32812;SDS011;19162;48.254;11.454;2023-02-28T15:49:19;12.13;;;10.35;;
32812;SDS011;19162;48.254;11.454;2023-02-28T15:52:21;11.25;;;10.25;;
32812;SDS011;19162;48.254;11.454;2023-02-28T15:55:23;10.73;;;9.63;;
32812;SDS011;19162;48.254;11.454;2023-02-28T15:58:24;11.13;;;10.23;;
32812;SDS011;19162;48.254;11.454;2023-02-28T16:01:26;11.52;;;10.48;;
32812;SDS011;19162;48.254;11.454;2023-02-28T16:04:28;11.05;;;10.05;;
32812;SDS011;19162;48.254;11.454;2023-02-28T16:07:32;11.55;;;10.52;;
32812;SDS011;19162;48.254;11.454;2023-02-28T16:10:32;11.85;;;10.80;;
32812;SDS011;19162;48.254;11.454;2023-02-28T16:13:32;10.77;;;9.88;;
32812;SDS011;19162;48.254;11.454;2023-02-28T16:16:33;11.48;;;10.50;;
32812;SDS011;19162;48.254;11.454;2023-02-28T16:19:33;11.77;;;10.68;;
32812;SDS011;19162;48.254;11.454;2023-02-28T16:22:34;12.02;;;11.05;;
32812;SDS011;19162;48.254;11.454;2023-02-28T16:28:36;13.20;;;11.80;;
32812;SDS011;19162;48.254;11.454;2023-02-28T16:31:38;12.20;;;11.18;;
32812;SDS011;19162;48.254;11.454;2023-02-28T16:34:38;12.38;;;11.27;;
32812;SDS011;19162;48.254;11.454;2023-02-28T16:37:38;11.43;;;10.40;;
32812;SDS011;19162;48.254;11.454;2023-02-28T16:40:39;13.03;;;11.93;;
32812;SDS011;19162;48.254;11.454;2023-02-28T16:43:39;12.23;;;11.20;;
32812;SDS011;19162;48.254;11.454;2023-02-28T16:46:39;13.00;;;11.77;;
32812;SDS011;19162;48.254;11.454;2023-02-28T16:49:39;13.43;;;12.13;;
32812;SDS011;19162;48.254;11.454;2023-02-28T16:52:42;13.83;;;12.57;;
32812;SDS011;19162;48.254;11.454;2023-02-28T16:55:42;14.47;;;13.27;;
32812;SDS011;19162;48.254;11.454;2023-02-28T16:58:42;13.73;;;12.57;;
32812;SDS011;19162;48.254;11.454;2023-02-28T17:01:43;13.50;;;12.30;;
32812;SDS011;19162;48.254;11.454;2023-02-28T17:04:43;14.05;;;12.85;;
32812;SDS011;19162;48.254;11.454;2023-02-28T17:07:43;12.85;;;11.60;;
32812;SDS011;19162;48.254;11.454;2023-02-28T17:10:43;13.33;;;12.13;;
32812;SDS011;19162;48.254;11.454;2023-02-28T17:13:44;14.60;;;13.20;;
32812;SDS011;19162;48.254;11.454;2023-02-28T17:16:44;15.02;;;13.57;;
32812;SDS011;19162;48.254;11.454;2023-02-28T17:19:45;15.50;;;14.05;;
32812;SDS011;19162;48.254;11.454;2023-02-28T17:22:45;14.52;;;12.98;;
32812;SDS011;19162;48.254;11.454;2023-02-28T17:25:45;14.43;;;13.13;;
32812;SDS011;19162;48.254;11.454;2023-02-28T17:28:53;14.85;;;13.55;;
32812;SDS011;19162;48.254;11.454;2023-02-28T17:31:55;15.18;;;13.88;;
32812;SDS011;19162;48.254;11.454;2023-02-28T17:34:55;14.88;;;13.45;;
32812;SDS011;19162;48.254;11.454;2023-02-28T17:37:56;14.60;;;13.27;;
32812;SDS011;19162;48.254;11.454;2023-02-28T17:40:56;14.97;;;13.67;;
32812;SDS011;19162;48.254;11.454;2023-02-28T17:43:59;15.70;;;14.10;;
32812;SDS011;19162;48.254;11.454;2023-02-28T17:46:59;14.93;;;13.53;;
32812;SDS011;19162;48.254;11.454;2023-02-28T17:49:59;13.85;;;12.55;;
32812;SDS011;19162;48.254;11.454;2023-02-28T17:53:00;13.50;;;12.35;;
32812;SDS011;19162;48.254;11.454;2023-02-28T17:56:00;15.50;;;14.13;;
32812;SDS011;19162;48.254;11.454;2023-02-28T17:59:00;16.17;;;14.63;;
32812;SDS011;19162;48.254;11.454;2023-02-28T18:02:00;14.83;;;13.53;;
32812;SDS011;19162;48.254;11.454;2023-02-28T18:05:00;15.52;;;14.13;;
32812;SDS011;19162;48.254;11.454;2023-02-28T18:08:03;15.07;;;13.67;;
32812;SDS011;19162;48.254;11.454;2023-02-28T18:11:03;15.97;;;13.90;;
32812;SDS011;19162;48.254;11.454;2023-02-28T18:14:03;14.97;;;13.63;;
32812;SDS011;19162;48.254;11.454;2023-02-28T18:17:03;14.82;;;13.32;;
32812;SDS011;19162;48.254;11.454;2023-02-28T18:20:03;15.07;;;13.60;;
32812;SDS011;19162;48.254;11.454;2023-02-28T18:23:09;15.07;;;13.65;;
32812;SDS011;19162;48.254;11.454;2023-02-28T18:26:09;14.87;;;13.57;;
32812;SDS011;19162;48.254;11.454;2023-02-28T18:29:15;14.90;;;13.53;;
32812;SDS011;19162;48.254;11.454;2023-02-28T18:32:15;15.27;;;13.93;;
32812;SDS011;19162;48.254;11.454;2023-02-28T18:35:15;14.80;;;13.50;;
32812;SDS011;19162;48.254;11.454;2023-02-28T18:38:22;15.25;;;13.85;;
32812;SDS011;19162;48.254;11.454;2023-02-28T18:41:23;14.93;;;13.55;;
32812;SDS011;19162;48.254;11.454;2023-02-28T18:44:23;15.88;;;14.35;;
32812;SDS011;19162;48.254;11.454;2023-02-28T18:47:23;15.95;;;14.45;;
32812;SDS011;19162;48.254;11.454;2023-02-28T18:50:23;15.53;;;13.97;;
32812;SDS011;19162;48.254;11.454;2023-02-28T18:53:23;14.85;;;13.55;;
32812;SDS011;19162;48.254;11.454;2023-02-28T18:56:24;17.50;;;14.83;;
32812;SDS011;19162;48.254;11.454;2023-02-28T18:59:24;15.45;;;14.02;;
32812;SDS011;19162;48.254;11.454;2023-02-28T19:02:24;14.93;;;13.57;;
32812;SDS011;19162;48.254;11.454;2023-02-28T19:05:25;16.65;;;14.93;;
32812;SDS011;19162;48.254;11.454;2023-02-28T19:08:26;16.13;;;14.73;;
32812;SDS011;19162;48.254;11.454;2023-02-28T19:11:27;16.17;;;14.77;;
32812;SDS011;19162;48.254;11.454;2023-02-28T19:14:27;15.75;;;14.38;;
32812;SDS011;19162;48.254;11.454;2023-02-28T19:17:27;16.30;;;14.73;;
32812;SDS011;19162;48.254;11.454;2023-02-28T19:20:27;16.45;;;15.05;;
32812;SDS011;19162;48.254;11.454;2023-02-28T19:23:30;16.13;;;14.57;;
32812;SDS011;19162;48.254;11.454;2023-02-28T19:26:30;16.30;;;14.65;;
32812;SDS011;19162;48.254;11.454;2023-02-28T19:29:30;15.20;;;13.90;;
32812;SDS011;19162;48.254;11.454;2023-02-28T19:32:30;15.98;;;14.57;;
32812;SDS011;19162;48.254;11.454;2023-02-28T19:35:31;16.67;;;15.10;;
32812;SDS011;19162;48.254;11.454;2023-02-28T19:38:31;16.27;;;14.75;;
32812;SDS011;19162;48.254;11.454;2023-02-28T19:41:31;15.93;;;14.60;;
32812;SDS011;19162;48.254;11.454;2023-02-28T19:44:31;16.42;;;15.02;;
32812;SDS011;19162;48.254;11.454;2023-02-28T19:47:32;16.10;;;14.60;;
32812;SDS011;19162;48.254;11.454;2023-02-28T19:50:32;16.92;;;15.45;;
32812;SDS011;19162;48.254;11.454;2023-02-28T19:53:33;17.25;;;15.68;;
32812;SDS011;19162;48.254;11.454;2023-02-28T19:56:33;17.63;;;16.05;;
32812;SDS011;19162;48.254;11.454;2023-02-28T19:59:33;16.42;;;15.02;;
32812;SDS011;19162;48.254;11.454;2023-02-28T20:02:34;17.15;;;15.55;;
32812;SDS011;19162;48.254;11.454;2023-02-28T20:05:34;17.87;;;16.17;;
32812;SDS011;19162;48.254;11.454;2023-02-28T20:08:34;17.03;;;15.60;;
32812;SDS011;19162;48.254;11.454;2023-02-28T20:11:35;16.02;;;14.73;;
32812;SDS011;19162;48.254;11.454;2023-02-28T20:14:35;17.15;;;15.65;;
32812;SDS011;19162;48.254;11.454;2023-02-28T20:17:35;17.45;;;15.85;;
32812;SDS011;19162;48.254;11.454;2023-02-28T20:20:35;18.42;;;16.67;;